sensor_id;sensor_type;location;lat;lon;timestamp;P1;durP1;ratioP1;P2;durP2;ratioP2
67839;SDS011;54636;51.684;5.142;2022-12-08T00:01:07;12.55;;;11.10;;
67839;SDS011;54636;51.684;5.142;2022-12-08T00:03:34;17.08;;;11.23;;
67839;SDS011;54636;51.684;5.142;2022-12-08T00:06:00;15.68;;;11.57;;
67839;SDS011;54636;51.684;5.142;2022-12-08T00:08:45;14.73;;;10.57;;
67839;SDS011;54636;51.684;5.142;2022-12-08T00:11:29;13.75;;;11.23;;
67839;SDS011;54636;51.684;5.142;2022-12-08T00:13:54;15.77;;;11.45;;
67839;SDS011;54636;51.684;5.142;2022-12-08T00:16:20;15.55;;;10.13;;
67839;SDS011;54636;51.684;5.142;2022-12-08T00:18:45;10.90;;;9.32;;
67839;SDS011;54636;51.684;5.142;2022-12-08T00:21:11;12.70;;;10.27;;
67839;SDS011;54636;51.684;5.142;2022-12-08T00:23:36;15.20;;;10.05;;
67839;SDS011;54636;51.684;5.142;2022-12-08T00:26:04;17.10;;;11.07;;
67839;SDS011;54636;51.684;5.142;2022-12-08T00:28:31;11.55;;;10.35;;
67839;SDS011;54636;51.684;5.142;2022-12-08T00:30:57;16.15;;;9.25;;
67839;SDS011;54636;51.684;5.142;2022-12-08T00:33:23;7.70;;;6.95;;
67839;SDS011;54636;51.684;5.142;2022-12-08T00:35:49;11.25;;;10.10;;
67839;SDS011;54636;51.684;5.142;2022-12-08T00:38:14;11.80;;;9.57;;
67839;SDS011;54636;51.684;5.142;2022-12-08T00:40:46;11.70;;;10.48;;
67839;SDS011;54636;51.684;5.142;2022-12-08T00:43:11;15.80;;;11.43;;
67839;SDS011;54636;51.684;5.142;2022-12-08T00:45:37;10.10;;;9.10;;
67839;SDS011;54636;51.684;5.142;2022-12-08T00:48:03;14.75;;;9.60;;
67839;SDS011;54636;51.684;5.142;2022-12-08T00:50:29;14.02;;;9.38;;
67839;SDS011;54636;51.684;5.142;2022-12-08T00:52:54;13.95;;;9.63;;
67839;SDS011;54636;51.684;5.142;2022-12-08T00:55:20;12.45;;;8.52;;
67839;SDS011;54636;51.684;5.142;2022-12-08T00:57:45;9.13;;;8.27;;
67839;SDS011;54636;51.684;5.142;2022-12-08T01:00:10;15.10;;;8.95;;
67839;SDS011;54636;51.684;5.142;2022-12-08T01:02:36;11.15;;;8.00;;
67839;SDS011;54636;51.684;5.142;2022-12-08T01:05:02;8.82;;;8.02;;
67839;SDS011;54636;51.684;5.142;2022-12-08T01:07:27;11.45;;;8.38;;
67839;SDS011;54636;51.684;5.142;2022-12-08T01:09:52;8.52;;;7.53;;
67839;SDS011;54636;51.684;5.142;2022-12-08T01:12:18;9.32;;;7.45;;
67839;SDS011;54636;51.684;5.142;2022-12-08T01:14:43;9.13;;;7.45;;
67839;SDS011;54636;51.684;5.142;2022-12-08T01:17:09;8.30;;;6.82;;
67839;SDS011;54636;51.684;5.142;2022-12-08T01:19:34;9.48;;;7.43;;
67839;SDS011;54636;51.684;5.142;2022-12-08T01:22:00;9.82;;;7.30;;
67839;SDS011;54636;51.684;5.142;2022-12-08T01:24:26;10.60;;;7.15;;
67839;SDS011;54636;51.684;5.142;2022-12-08T01:26:51;10.65;;;6.95;;
67839;SDS011;54636;51.684;5.142;2022-12-08T01:29:16;9.55;;;6.47;;
67839;SDS011;54636;51.684;5.142;2022-12-08T01:31:42;8.63;;;5.97;;
67839;SDS011;54636;51.684;5.142;2022-12-08T01:34:09;7.85;;;5.95;;
67839;SDS011;54636;51.684;5.142;2022-12-08T01:36:35;7.63;;;4.53;;
67839;SDS011;54636;51.684;5.142;2022-12-08T01:39:02;5.75;;;5.25;;
67839;SDS011;54636;51.684;5.142;2022-12-08T01:41:31;7.93;;;5.63;;
67839;SDS011;54636;51.684;5.142;2022-12-08T01:43:59;6.07;;;4.50;;
67839;SDS011;54636;51.684;5.142;2022-12-08T01:46:45;5.47;;;4.68;;
67839;SDS011;54636;51.684;5.142;2022-12-08T01:51:48;4.43;;;4.05;;
67839;SDS011;54636;51.684;5.142;2022-12-08T01:54:21;5.68;;;4.00;;
67839;SDS011;54636;51.684;5.142;2022-12-08T01:56:57;5.18;;;3.95;;
67839;SDS011;54636;51.684;5.142;2022-12-08T01:59:25;6.50;;;3.58;;
67839;SDS011;54636;51.684;5.142;2022-12-08T02:01:52;3.88;;;3.60;;
67839;SDS011;54636;51.684;5.142;2022-12-08T02:04:18;3.65;;;3.35;;
67839;SDS011;54636;51.684;5.142;2022-12-08T02:06:43;3.53;;;3.20;;
67839;SDS011;54636;51.684;5.142;2022-12-08T02:09:10;4.85;;;3.25;;
67839;SDS011;54636;51.684;5.142;2022-12-08T02:11:36;2.95;;;2.75;;
67839;SDS011;54636;51.684;5.142;2022-12-08T02:14:03;4.70;;;2.95;;
67839;SDS011;54636;51.684;5.142;2022-12-08T02:24:39;2.90;;;2.60;;
67839;SDS011;54636;51.684;5.142;2022-12-08T02:27:27;3.88;;;2.80;;
67839;SDS011;54636;51.684;5.142;2022-12-08T02:35:43;2.35;;;2.25;;
67839;SDS011;54636;51.684;5.142;2022-12-08T02:38:15;4.40;;;2.22;;
67839;SDS011;54636;51.684;5.142;2022-12-08T02:43:40;1.92;;;1.70;;
67839;SDS011;54636;51.684;5.142;2022-12-08T02:46:10;3.33;;;1.77;;
67839;SDS011;54636;51.684;5.142;2022-12-08T02:48:40;1.98;;;1.05;;
67839;SDS011;54636;51.684;5.142;2022-12-08T02:51:07;1.40;;;1.27;;
67839;SDS011;54636;51.684;5.142;2022-12-08T02:53:33;1.83;;;1.50;;
67839;SDS011;54636;51.684;5.142;2022-12-08T03:01:37;0.85;;;0.65;;
67839;SDS011;54636;51.684;5.142;2022-12-08T03:04:17;1.88;;;1.40;;
67839;SDS011;54636;51.684;5.142;2022-12-08T03:06:47;3.72;;;1.20;;
67839;SDS011;54636;51.684;5.142;2022-12-08T03:09:24;4.53;;;1.05;;
67839;SDS011;54636;51.684;5.142;2022-12-08T03:12:18;0.93;;;0.93;;
67839;SDS011;54636;51.684;5.142;2022-12-08T03:17:17;1.77;;;0.95;;
67839;SDS011;54636;51.684;5.142;2022-12-08T03:19:46;1.88;;;1.00;;
67839;SDS011;54636;51.684;5.142;2022-12-08T03:22:12;1.05;;;0.75;;
67839;SDS011;54636;51.684;5.142;2022-12-08T03:24:44;3.90;;;0.90;;
67839;SDS011;54636;51.684;5.142;2022-12-08T03:27:14;1.60;;;1.10;;
67839;SDS011;54636;51.684;5.142;2022-12-08T03:29:47;1.73;;;0.95;;
67839;SDS011;54636;51.684;5.142;2022-12-08T03:32:19;2.47;;;1.75;;
67839;SDS011;54636;51.684;5.142;2022-12-08T03:34:51;2.08;;;1.20;;
67839;SDS011;54636;51.684;5.142;2022-12-08T03:37:18;3.80;;;1.45;;
67839;SDS011;54636;51.684;5.142;2022-12-08T03:39:44;2.03;;;1.73;;
67839;SDS011;54636;51.684;5.142;2022-12-08T03:42:10;1.77;;;1.58;;
67839;SDS011;54636;51.684;5.142;2022-12-08T03:44:35;4.47;;;2.25;;
67839;SDS011;54636;51.684;5.142;2022-12-08T03:47:01;5.40;;;2.60;;
67839;SDS011;54636;51.684;5.142;2022-12-08T03:49:26;5.13;;;2.40;;
67839;SDS011;54636;51.684;5.142;2022-12-08T03:51:51;8.02;;;3.35;;
67839;SDS011;54636;51.684;5.142;2022-12-08T03:54:17;5.43;;;3.13;;
67839;SDS011;54636;51.684;5.142;2022-12-08T03:56:42;4.47;;;3.40;;
67839;SDS011;54636;51.684;5.142;2022-12-08T03:59:09;4.03;;;3.35;;
67839;SDS011;54636;51.684;5.142;2022-12-08T04:01:34;7.47;;;3.35;;
67839;SDS011;54636;51.684;5.142;2022-12-08T04:03:59;5.28;;;2.85;;
67839;SDS011;54636;51.684;5.142;2022-12-08T04:06:25;7.30;;;3.45;;
67839;SDS011;54636;51.684;5.142;2022-12-08T04:08:50;3.45;;;3.17;;
67839;SDS011;54636;51.684;5.142;2022-12-08T04:11:16;3.72;;;3.45;;
67839;SDS011;54636;51.684;5.142;2022-12-08T04:13:43;3.00;;;2.38;;
67839;SDS011;54636;51.684;5.142;2022-12-08T04:16:12;5.57;;;4.07;;
67839;SDS011;54636;51.684;5.142;2022-12-08T04:18:39;6.00;;;4.70;;
67839;SDS011;54636;51.684;5.142;2022-12-08T04:21:05;3.90;;;3.60;;
67839;SDS011;54636;51.684;5.142;2022-12-08T04:23:30;3.97;;;3.45;;
67839;SDS011;54636;51.684;5.142;2022-12-08T04:25:55;4.32;;;4.00;;
67839;SDS011;54636;51.684;5.142;2022-12-08T04:28:21;8.85;;;4.72;;
67839;SDS011;54636;51.684;5.142;2022-12-08T04:30:46;5.78;;;4.47;;
67839;SDS011;54636;51.684;5.142;2022-12-08T04:33:12;5.57;;;4.45;;
67839;SDS011;54636;51.684;5.142;2022-12-08T04:35:38;5.03;;;4.38;;
67839;SDS011;54636;51.684;5.142;2022-12-08T04:38:03;4.85;;;4.40;;
67839;SDS011;54636;51.684;5.142;2022-12-08T04:40:28;8.75;;;5.18;;
67839;SDS011;54636;51.684;5.142;2022-12-08T04:42:54;6.60;;;5.30;;
67839;SDS011;54636;51.684;5.142;2022-12-08T04:45:19;12.07;;;4.82;;
67839;SDS011;54636;51.684;5.142;2022-12-08T04:47:44;5.93;;;5.28;;
67839;SDS011;54636;51.684;5.142;2022-12-08T04:50:10;5.30;;;4.15;;
67839;SDS011;54636;51.684;5.142;2022-12-08T04:52:35;5.53;;;4.00;;
67839;SDS011;54636;51.684;5.142;2022-12-08T04:55:01;4.65;;;3.28;;
67839;SDS011;54636;51.684;5.142;2022-12-08T04:57:26;5.10;;;2.58;;
67839;SDS011;54636;51.684;5.142;2022-12-08T04:59:52;3.70;;;2.63;;
67839;SDS011;54636;51.684;5.142;2022-12-08T05:02:17;3.25;;;2.38;;
67839;SDS011;54636;51.684;5.142;2022-12-08T05:04:42;2.28;;;2.10;;
67839;SDS011;54636;51.684;5.142;2022-12-08T05:07:08;4.75;;;1.95;;
67839;SDS011;54636;51.684;5.142;2022-12-08T05:09:33;3.00;;;1.60;;
67839;SDS011;54636;51.684;5.142;2022-12-08T05:11:58;4.75;;;1.50;;
67839;SDS011;54636;51.684;5.142;2022-12-08T05:14:24;1.80;;;1.30;;
67839;SDS011;54636;51.684;5.142;2022-12-08T05:16:49;3.38;;;1.15;;
67839;SDS011;54636;51.684;5.142;2022-12-08T05:19:15;3.05;;;1.00;;
67839;SDS011;54636;51.684;5.142;2022-12-08T05:21:41;1.70;;;1.10;;
67839;SDS011;54636;51.684;5.142;2022-12-08T05:24:07;2.50;;;1.20;;
67839;SDS011;54636;51.684;5.142;2022-12-08T05:26:32;6.13;;;1.33;;
67839;SDS011;54636;51.684;5.142;2022-12-08T05:28:58;1.00;;;0.90;;
67839;SDS011;54636;51.684;5.142;2022-12-08T05:31:23;4.38;;;1.00;;
67839;SDS011;54636;51.684;5.142;2022-12-08T05:33:49;3.25;;;0.90;;
67839;SDS011;54636;51.684;5.142;2022-12-08T05:36:16;4.00;;;1.20;;
67839;SDS011;54636;51.684;5.142;2022-12-08T05:38:41;8.88;;;1.88;;
67839;SDS011;54636;51.684;5.142;2022-12-08T05:41:08;1.85;;;1.30;;
67839;SDS011;54636;51.684;5.142;2022-12-08T05:43:37;5.03;;;1.60;;
67839;SDS011;54636;51.684;5.142;2022-12-08T05:46:02;1.65;;;1.55;;
67839;SDS011;54636;51.684;5.142;2022-12-08T05:48:28;5.95;;;1.58;;
67839;SDS011;54636;51.684;5.142;2022-12-08T05:50:54;4.13;;;1.33;;
67839;SDS011;54636;51.684;5.142;2022-12-08T05:53:19;1.50;;;1.40;;
67839;SDS011;54636;51.684;5.142;2022-12-08T05:55:45;3.85;;;2.22;;
67839;SDS011;54636;51.684;5.142;2022-12-08T05:58:17;1.25;;;1.23;;
67839;SDS011;54636;51.684;5.142;2022-12-08T06:00:44;2.58;;;1.13;;
67839;SDS011;54636;51.684;5.142;2022-12-08T06:03:11;7.45;;;1.77;;
67839;SDS011;54636;51.684;5.142;2022-12-08T06:05:37;2.72;;;1.55;;
67839;SDS011;54636;51.684;5.142;2022-12-08T06:08:02;3.22;;;1.75;;
67839;SDS011;54636;51.684;5.142;2022-12-08T06:10:28;3.55;;;1.60;;
67839;SDS011;54636;51.684;5.142;2022-12-08T06:12:53;1.40;;;1.30;;
67839;SDS011;54636;51.684;5.142;2022-12-08T06:15:19;1.50;;;1.40;;
67839;SDS011;54636;51.684;5.142;2022-12-08T06:17:44;2.15;;;1.63;;
67839;SDS011;54636;51.684;5.142;2022-12-08T06:20:10;4.55;;;1.63;;
67839;SDS011;54636;51.684;5.142;2022-12-08T06:22:35;4.88;;;1.50;;
67839;SDS011;54636;51.684;5.142;2022-12-08T06:25:01;1.27;;;1.15;;
67839;SDS011;54636;51.684;5.142;2022-12-08T06:27:26;1.30;;;1.13;;
67839;SDS011;54636;51.684;5.142;2022-12-08T06:29:51;5.20;;;1.70;;
67839;SDS011;54636;51.684;5.142;2022-12-08T06:32:17;2.20;;;1.42;;
67839;SDS011;54636;51.684;5.142;2022-12-08T06:34:43;3.33;;;1.60;;
67839;SDS011;54636;51.684;5.142;2022-12-08T06:37:08;3.17;;;1.80;;
67839;SDS011;54636;51.684;5.142;2022-12-08T06:39:33;4.72;;;2.30;;
67839;SDS011;54636;51.684;5.142;2022-12-08T06:41:59;3.30;;;1.55;;
67839;SDS011;54636;51.684;5.142;2022-12-08T06:44:44;1.70;;;1.60;;
67839;SDS011;54636;51.684;5.142;2022-12-08T06:47:09;5.50;;;2.08;;
67839;SDS011;54636;51.684;5.142;2022-12-08T06:49:35;2.08;;;1.98;;
67839;SDS011;54636;51.684;5.142;2022-12-08T06:52:00;6.93;;;2.10;;
67839;SDS011;54636;51.684;5.142;2022-12-08T06:54:26;6.68;;;2.40;;
67839;SDS011;54636;51.684;5.142;2022-12-08T06:56:51;4.82;;;2.28;;
67839;SDS011;54636;51.684;5.142;2022-12-08T06:59:16;9.88;;;2.60;;
67839;SDS011;54636;51.684;5.142;2022-12-08T07:01:46;6.57;;;2.30;;
67839;SDS011;54636;51.684;5.142;2022-12-08T07:04:11;4.25;;;2.10;;
67839;SDS011;54636;51.684;5.142;2022-12-08T07:06:37;3.95;;;2.63;;
67839;SDS011;54636;51.684;5.142;2022-12-08T07:09:02;2.78;;;2.55;;
67839;SDS011;54636;51.684;5.142;2022-12-08T07:11:28;3.28;;;2.53;;
67839;SDS011;54636;51.684;5.142;2022-12-08T07:13:56;4.20;;;2.40;;
67839;SDS011;54636;51.684;5.142;2022-12-08T07:16:22;3.20;;;2.33;;
67839;SDS011;54636;51.684;5.142;2022-12-08T07:18:47;3.50;;;2.40;;
67839;SDS011;54636;51.684;5.142;2022-12-08T07:21:15;2.33;;;2.20;;
67839;SDS011;54636;51.684;5.142;2022-12-08T07:23:43;7.03;;;2.55;;
67839;SDS011;54636;51.684;5.142;2022-12-08T07:26:10;2.97;;;2.08;;
67839;SDS011;54636;51.684;5.142;2022-12-08T07:28:37;1.48;;;1.38;;
67839;SDS011;54636;51.684;5.142;2022-12-08T07:31:05;4.47;;;1.90;;
67839;SDS011;54636;51.684;5.142;2022-12-08T07:33:32;4.88;;;1.67;;
67839;SDS011;54636;51.684;5.142;2022-12-08T07:35:59;4.10;;;1.77;;
67839;SDS011;54636;51.684;5.142;2022-12-08T07:38:26;1.27;;;1.20;;
67839;SDS011;54636;51.684;5.142;2022-12-08T07:40:52;2.55;;;1.10;;
67839;SDS011;54636;51.684;5.142;2022-12-08T07:43:18;1.00;;;1.00;;
67839;SDS011;54636;51.684;5.142;2022-12-08T07:45:44;0.70;;;0.70;;
67839;SDS011;54636;51.684;5.142;2022-12-08T07:48:10;0.52;;;0.52;;
67839;SDS011;54636;51.684;5.142;2022-12-08T07:50:35;0.47;;;0.47;;
67839;SDS011;54636;51.684;5.142;2022-12-08T07:53:01;2.05;;;0.80;;
67839;SDS011;54636;51.684;5.142;2022-12-08T07:55:26;2.25;;;1.40;;
67839;SDS011;54636;51.684;5.142;2022-12-08T07:57:52;1.10;;;1.10;;
67839;SDS011;54636;51.684;5.142;2022-12-08T08:00:18;1.10;;;1.10;;
67839;SDS011;54636;51.684;5.142;2022-12-08T08:02:44;1.20;;;1.10;;
67839;SDS011;54636;51.684;5.142;2022-12-08T08:05:09;1.40;;;1.30;;
67839;SDS011;54636;51.684;5.142;2022-12-08T08:07:38;1.63;;;1.15;;
67839;SDS011;54636;51.684;5.142;2022-12-08T08:10:07;2.58;;;1.35;;
67839;SDS011;54636;51.684;5.142;2022-12-08T08:12:32;1.30;;;1.20;;
67839;SDS011;54636;51.684;5.142;2022-12-08T08:14:59;1.52;;;1.42;;
67839;SDS011;54636;51.684;5.142;2022-12-08T08:17:25;5.88;;;1.20;;
67839;SDS011;54636;51.684;5.142;2022-12-08T08:19:51;1.70;;;1.60;;
67839;SDS011;54636;51.684;5.142;2022-12-08T08:22:16;3.25;;;2.95;;
67839;SDS011;54636;51.684;5.142;2022-12-08T08:24:41;3.10;;;2.78;;
67839;SDS011;54636;51.684;5.142;2022-12-08T08:27:07;2.55;;;2.33;;
67839;SDS011;54636;51.684;5.142;2022-12-08T08:29:32;2.00;;;1.80;;
67839;SDS011;54636;51.684;5.142;2022-12-08T08:31:58;1.60;;;1.50;;
67839;SDS011;54636;51.684;5.142;2022-12-08T08:34:23;1.45;;;1.40;;
67839;SDS011;54636;51.684;5.142;2022-12-08T08:36:49;2.92;;;1.60;;
67839;SDS011;54636;51.684;5.142;2022-12-08T08:39:14;1.98;;;1.83;;
67839;SDS011;54636;51.684;5.142;2022-12-08T08:41:39;1.63;;;1.58;;
67839;SDS011;54636;51.684;5.142;2022-12-08T08:44:05;1.90;;;1.80;;
67839;SDS011;54636;51.684;5.142;2022-12-08T08:46:30;1.80;;;1.70;;
67839;SDS011;54636;51.684;5.142;2022-12-08T08:48:56;1.92;;;1.80;;
67839;SDS011;54636;51.684;5.142;2022-12-08T08:51:22;4.75;;;2.15;;
67839;SDS011;54636;51.684;5.142;2022-12-08T08:53:47;2.08;;;1.88;;
67839;SDS011;54636;51.684;5.142;2022-12-08T08:56:13;5.38;;;1.45;;
67839;SDS011;54636;51.684;5.142;2022-12-08T08:58:42;2.15;;;1.70;;
67839;SDS011;54636;51.684;5.142;2022-12-08T09:01:07;6.00;;;1.73;;
67839;SDS011;54636;51.684;5.142;2022-12-08T09:03:33;5.10;;;1.45;;
67839;SDS011;54636;51.684;5.142;2022-12-08T09:05:58;1.65;;;1.55;;
67839;SDS011;54636;51.684;5.142;2022-12-08T09:08:24;1.92;;;1.65;;
67839;SDS011;54636;51.684;5.142;2022-12-08T09:10:49;3.60;;;1.70;;
67839;SDS011;54636;51.684;5.142;2022-12-08T09:13:15;4.57;;;1.77;;
67839;SDS011;54636;51.684;5.142;2022-12-08T09:15:40;5.13;;;1.88;;
67839;SDS011;54636;51.684;5.142;2022-12-08T09:18:06;3.42;;;1.65;;
67839;SDS011;54636;51.684;5.142;2022-12-08T09:20:32;4.22;;;1.75;;
67839;SDS011;54636;51.684;5.142;2022-12-08T09:22:58;8.13;;;2.00;;
67839;SDS011;54636;51.684;5.142;2022-12-08T09:25:24;5.10;;;1.70;;
67839;SDS011;54636;51.684;5.142;2022-12-08T09:27:49;3.60;;;1.95;;
67839;SDS011;54636;51.684;5.142;2022-12-08T09:30:14;2.88;;;2.05;;
67839;SDS011;54636;51.684;5.142;2022-12-08T09:32:40;1.58;;;1.52;;
67839;SDS011;54636;51.684;5.142;2022-12-08T09:35:05;1.48;;;1.20;;
67839;SDS011;54636;51.684;5.142;2022-12-08T09:37:31;2.58;;;1.65;;
67839;SDS011;54636;51.684;5.142;2022-12-08T09:39:56;5.07;;;1.75;;
67839;SDS011;54636;51.684;5.142;2022-12-08T09:42:34;4.68;;;1.80;;
67839;SDS011;54636;51.684;5.142;2022-12-08T09:45:14;3.22;;;2.10;;
67839;SDS011;54636;51.684;5.142;2022-12-08T09:47:42;3.92;;;1.63;;
67839;SDS011;54636;51.684;5.142;2022-12-08T09:53:04;2.72;;;1.90;;
67839;SDS011;54636;51.684;5.142;2022-12-08T09:55:40;2.47;;;2.05;;
67839;SDS011;54636;51.684;5.142;2022-12-08T09:58:19;3.35;;;2.20;;
67839;SDS011;54636;51.684;5.142;2022-12-08T10:01:01;4.85;;;2.17;;
67839;SDS011;54636;51.684;5.142;2022-12-08T10:03:27;3.00;;;2.20;;
67839;SDS011;54636;51.684;5.142;2022-12-08T10:05:57;4.40;;;1.90;;
67839;SDS011;54636;51.684;5.142;2022-12-08T10:08:28;3.40;;;2.10;;
67839;SDS011;54636;51.684;5.142;2022-12-08T10:11:25;3.10;;;2.13;;
67839;SDS011;54636;51.684;5.142;2022-12-08T10:14:07;1.95;;;1.85;;
67839;SDS011;54636;51.684;5.142;2022-12-08T10:16:43;2.05;;;1.95;;
67839;SDS011;54636;51.684;5.142;2022-12-08T10:21:41;4.70;;;2.58;;
67839;SDS011;54636;51.684;5.142;2022-12-08T10:24:28;10.30;;;3.90;;
67839;SDS011;54636;51.684;5.142;2022-12-08T10:26:59;4.65;;;2.85;;
67839;SDS011;54636;51.684;5.142;2022-12-08T10:29:25;4.45;;;2.58;;
67839;SDS011;54636;51.684;5.142;2022-12-08T10:31:50;6.32;;;2.72;;
67839;SDS011;54636;51.684;5.142;2022-12-08T10:34:20;2.97;;;2.65;;
67839;SDS011;54636;51.684;5.142;2022-12-08T10:36:52;4.13;;;2.30;;
67839;SDS011;54636;51.684;5.142;2022-12-08T10:39:33;3.50;;;2.28;;
67839;SDS011;54636;51.684;5.142;2022-12-08T10:42:00;2.70;;;1.20;;
67839;SDS011;54636;51.684;5.142;2022-12-08T10:44:26;1.75;;;0.93;;
67839;SDS011;54636;51.684;5.142;2022-12-08T10:46:52;3.33;;;1.30;;
67839;SDS011;54636;51.684;5.142;2022-12-08T10:49:24;2.28;;;0.70;;
67839;SDS011;54636;51.684;5.142;2022-12-08T10:51:51;0.75;;;0.75;;
67839;SDS011;54636;51.684;5.142;2022-12-08T10:54:26;2.25;;;0.98;;
67839;SDS011;54636;51.684;5.142;2022-12-08T10:56:58;0.50;;;0.50;;
67839;SDS011;54636;51.684;5.142;2022-12-08T10:59:24;1.52;;;0.82;;
67839;SDS011;54636;51.684;5.142;2022-12-08T11:01:53;0.52;;;0.40;;
67839;SDS011;54636;51.684;5.142;2022-12-08T11:04:38;0.63;;;0.55;;
67839;SDS011;54636;51.684;5.142;2022-12-08T11:07:03;1.20;;;0.50;;
67839;SDS011;54636;51.684;5.142;2022-12-08T11:11:56;0.75;;;0.60;;
67839;SDS011;54636;51.684;5.142;2022-12-08T11:14:23;0.50;;;0.50;;
67839;SDS011;54636;51.684;5.142;2022-12-08T11:16:53;0.93;;;0.93;;
67839;SDS011;54636;51.684;5.142;2022-12-08T11:19:40;1.10;;;1.10;;
67839;SDS011;54636;51.684;5.142;2022-12-08T11:22:27;1.00;;;1.00;;
67839;SDS011;54636;51.684;5.142;2022-12-08T11:27:36;1.10;;;1.00;;
67839;SDS011;54636;51.684;5.142;2022-12-08T11:30:17;1.35;;;1.17;;
67839;SDS011;54636;51.684;5.142;2022-12-08T11:32:48;1.60;;;1.45;;
67839;SDS011;54636;51.684;5.142;2022-12-08T11:35:21;1.42;;;1.35;;
67839;SDS011;54636;51.684;5.142;2022-12-08T11:37:51;1.50;;;1.40;;
67839;SDS011;54636;51.684;5.142;2022-12-08T11:40:24;2.42;;;1.65;;
67839;SDS011;54636;51.684;5.142;2022-12-08T11:43:01;2.47;;;1.70;;
67839;SDS011;54636;51.684;5.142;2022-12-08T11:45:52;4.68;;;2.17;;
67839;SDS011;54636;51.684;5.142;2022-12-08T11:48:34;2.05;;;1.95;;
67839;SDS011;54636;51.684;5.142;2022-12-08T11:52:06;2.70;;;2.00;;
67839;SDS011;54636;51.684;5.142;2022-12-08T11:54:16;1.20;;;1.05;;
67839;SDS011;54636;51.684;5.142;2022-12-08T11:56:48;1.60;;;1.50;;
67839;SDS011;54636;51.684;5.142;2022-12-08T12:01:48;3.15;;;1.73;;
67839;SDS011;54636;51.684;5.142;2022-12-08T12:12:11;1.63;;;1.10;;
67839;SDS011;54636;51.684;5.142;2022-12-08T12:25:47;0.95;;;0.95;;
67839;SDS011;54636;51.684;5.142;2022-12-08T12:28:23;1.23;;;1.23;;
67839;SDS011;54636;51.684;5.142;2022-12-08T12:31:00;3.90;;;1.13;;
67839;SDS011;54636;51.684;5.142;2022-12-08T12:33:30;2.92;;;1.10;;
67839;SDS011;54636;51.684;5.142;2022-12-08T12:35:57;1.17;;;1.10;;
67839;SDS011;54636;51.684;5.142;2022-12-08T12:38:42;1.00;;;1.00;;
67839;SDS011;54636;51.684;5.142;2022-12-08T12:44:07;1.30;;;1.20;;
67839;SDS011;54636;51.684;5.142;2022-12-08T13:04:57;1.60;;;1.60;;
67839;SDS011;54636;51.684;5.142;2022-12-08T13:07:30;2.05;;;1.85;;
67839;SDS011;54636;51.684;5.142;2022-12-08T13:10:06;2.97;;;2.03;;
67839;SDS011;54636;51.684;5.142;2022-12-08T13:12:42;2.20;;;2.10;;
67839;SDS011;54636;51.684;5.142;2022-12-08T13:15:15;2.65;;;2.55;;
67839;SDS011;54636;51.684;5.142;2022-12-08T13:17:46;2.58;;;2.38;;
67839;SDS011;54636;51.684;5.142;2022-12-08T13:20:17;2.40;;;2.30;;
67839;SDS011;54636;51.684;5.142;2022-12-08T13:28:46;4.20;;;2.85;;
67839;SDS011;54636;51.684;5.142;2022-12-08T13:35:55;2.30;;;2.20;;
67839;SDS011;54636;51.684;5.142;2022-12-08T13:38:29;3.00;;;2.90;;
67839;SDS011;54636;51.684;5.142;2022-12-08T13:40:57;4.65;;;2.55;;
67839;SDS011;54636;51.684;5.142;2022-12-08T13:43:37;3.85;;;3.40;;
67839;SDS011;54636;51.684;5.142;2022-12-08T13:46:06;3.13;;;2.97;;
67839;SDS011;54636;51.684;5.142;2022-12-08T13:53:49;4.63;;;4.03;;
67839;SDS011;54636;51.684;5.142;2022-12-08T13:56:23;4.13;;;3.92;;
67839;SDS011;54636;51.684;5.142;2022-12-08T13:58:51;4.15;;;3.85;;
67839;SDS011;54636;51.684;5.142;2022-12-08T14:01:47;4.80;;;4.50;;
67839;SDS011;54636;51.684;5.142;2022-12-08T14:04:15;5.50;;;5.10;;
67839;SDS011;54636;51.684;5.142;2022-12-08T14:06:44;6.53;;;6.03;;
67839;SDS011;54636;51.684;5.142;2022-12-08T14:09:16;5.43;;;4.93;;
67839;SDS011;54636;51.684;5.142;2022-12-08T14:12:06;6.35;;;5.85;;
67839;SDS011;54636;51.684;5.142;2022-12-08T14:14:39;3.08;;;2.88;;
67839;SDS011;54636;51.684;5.142;2022-12-08T14:17:15;4.88;;;4.18;;
67839;SDS011;54636;51.684;5.142;2022-12-08T14:19:53;5.70;;;4.70;;
67839;SDS011;54636;51.684;5.142;2022-12-08T14:22:21;4.47;;;3.83;;
67839;SDS011;54636;51.684;5.142;2022-12-08T14:24:48;4.07;;;3.88;;
67839;SDS011;54636;51.684;5.142;2022-12-08T14:27:16;3.90;;;3.70;;
67839;SDS011;54636;51.684;5.142;2022-12-08T14:35:10;4.60;;;4.30;;
67839;SDS011;54636;51.684;5.142;2022-12-08T14:37:58;5.50;;;4.80;;
67839;SDS011;54636;51.684;5.142;2022-12-08T14:40:32;4.75;;;4.35;;
67839;SDS011;54636;51.684;5.142;2022-12-08T14:48:25;4.28;;;3.42;;
67839;SDS011;54636;51.684;5.142;2022-12-08T14:51:03;4.03;;;3.72;;
67839;SDS011;54636;51.684;5.142;2022-12-08T14:53:37;4.65;;;4.35;;
67839;SDS011;54636;51.684;5.142;2022-12-08T14:59:03;4.20;;;3.92;;
67839;SDS011;54636;51.684;5.142;2022-12-08T15:01:41;2.33;;;2.20;;
67839;SDS011;54636;51.684;5.142;2022-12-08T15:04:12;3.05;;;2.85;;
67839;SDS011;54636;51.684;5.142;2022-12-08T15:09:46;3.33;;;2.80;;
67839;SDS011;54636;51.684;5.142;2022-12-08T15:14:40;7.28;;;5.97;;
67839;SDS011;54636;51.684;5.142;2022-12-08T15:19:56;3.85;;;3.47;;
67839;SDS011;54636;51.684;5.142;2022-12-08T15:22:22;4.03;;;3.38;;
67839;SDS011;54636;51.684;5.142;2022-12-08T15:24:48;5.07;;;3.60;;
67839;SDS011;54636;51.684;5.142;2022-12-08T15:27:17;4.72;;;4.07;;
67839;SDS011;54636;51.684;5.142;2022-12-08T15:29:45;5.68;;;5.15;;
67839;SDS011;54636;51.684;5.142;2022-12-08T15:32:11;5.05;;;3.55;;
67839;SDS011;54636;51.684;5.142;2022-12-08T15:34:40;4.35;;;3.60;;
67839;SDS011;54636;51.684;5.142;2022-12-08T15:37:08;5.30;;;3.38;;
67839;SDS011;54636;51.684;5.142;2022-12-08T15:39:44;1.75;;;1.65;;
67839;SDS011;54636;51.684;5.142;2022-12-08T15:42:10;6.03;;;2.78;;
67839;SDS011;54636;51.684;5.142;2022-12-08T15:44:37;4.68;;;3.10;;
67839;SDS011;54636;51.684;5.142;2022-12-08T15:47:02;2.47;;;2.28;;
67839;SDS011;54636;51.684;5.142;2022-12-08T15:49:28;2.97;;;1.80;;
67839;SDS011;54636;51.684;5.142;2022-12-08T15:51:54;3.10;;;2.80;;
67839;SDS011;54636;51.684;5.142;2022-12-08T15:54:20;2.70;;;2.50;;
67839;SDS011;54636;51.684;5.142;2022-12-08T15:56:49;3.53;;;2.40;;
67839;SDS011;54636;51.684;5.142;2022-12-08T15:59:21;3.47;;;2.92;;
67839;SDS011;54636;51.684;5.142;2022-12-08T16:01:48;5.18;;;2.83;;
67839;SDS011;54636;51.684;5.142;2022-12-08T16:04:18;4.82;;;2.90;;
67839;SDS011;54636;51.684;5.142;2022-12-08T16:06:46;3.55;;;3.33;;
67839;SDS011;54636;51.684;5.142;2022-12-08T16:09:15;3.33;;;2.70;;
67839;SDS011;54636;51.684;5.142;2022-12-08T16:11:43;3.50;;;3.20;;
67839;SDS011;54636;51.684;5.142;2022-12-08T16:14:27;5.15;;;3.80;;
67839;SDS011;54636;51.684;5.142;2022-12-08T16:16:52;3.70;;;3.40;;
67839;SDS011;54636;51.684;5.142;2022-12-08T16:19:18;4.22;;;3.45;;
67839;SDS011;54636;51.684;5.142;2022-12-08T16:21:43;5.50;;;4.10;;
67839;SDS011;54636;51.684;5.142;2022-12-08T16:24:08;3.25;;;2.85;;
67839;SDS011;54636;51.684;5.142;2022-12-08T16:26:34;3.60;;;2.92;;
67839;SDS011;54636;51.684;5.142;2022-12-08T16:29:00;3.65;;;2.78;;
67839;SDS011;54636;51.684;5.142;2022-12-08T16:31:25;3.28;;;2.97;;
67839;SDS011;54636;51.684;5.142;2022-12-08T16:33:50;3.60;;;3.30;;
67839;SDS011;54636;51.684;5.142;2022-12-08T16:36:16;4.82;;;4.32;;
67839;SDS011;54636;51.684;5.142;2022-12-08T16:38:41;6.95;;;5.20;;
67839;SDS011;54636;51.684;5.142;2022-12-08T16:41:11;6.68;;;5.40;;
67839;SDS011;54636;51.684;5.142;2022-12-08T16:43:58;5.13;;;4.60;;
67839;SDS011;54636;51.684;5.142;2022-12-08T16:46:25;4.55;;;4.15;;
67839;SDS011;54636;51.684;5.142;2022-12-08T16:48:52;7.68;;;4.05;;
67839;SDS011;54636;51.684;5.142;2022-12-08T16:51:18;7.35;;;4.20;;
67839;SDS011;54636;51.684;5.142;2022-12-08T16:53:44;7.57;;;4.30;;